createdAt,value
2022-12-16T00:02:30.226Z,96980.00
2022-12-16T00:05:20.345Z,96974.00
2022-12-16T00:08:07.832Z,96972.00
2022-12-16T00:11:00.079Z,96972.00
2022-12-16T00:13:48.718Z,96978.00
2022-12-16T00:16:36.414Z,96993.00
2022-12-16T00:19:24.788Z,96976.00
2022-12-16T00:22:12.307Z,96973.00
2022-12-16T00:24:59.807Z,96972.00
2022-12-16T00:27:47.354Z,96975.00
2022-12-16T00:30:35.023Z,96984.00
2022-12-16T00:33:26.520Z,96986.00
2022-12-16T00:36:14.535Z,96985.00
2022-12-16T00:39:03.548Z,96967.00
2022-12-16T00:41:51.707Z,96987.00
2022-12-16T00:44:39.435Z,97004.00
2022-12-16T00:47:26.900Z,97006.00
2022-12-16T00:50:14.508Z,96996.00
2022-12-16T00:53:02.991Z,97005.00
2022-12-16T00:55:50.825Z,97011.00
2022-12-16T00:58:39.511Z,97022.00
2022-12-16T01:01:27.120Z,97019.00
2022-12-16T01:04:14.760Z,97036.00
2022-12-16T01:07:02.440Z,97031.00
2022-12-16T01:09:50.030Z,97034.00
2022-12-16T01:12:38.961Z,97034.00
2022-12-16T01:15:27.311Z,97027.00
2022-12-16T01:18:16.380Z,97023.00
2022-12-16T01:21:11.333Z,97026.00
2022-12-16T01:23:59.649Z,97031.00
2022-12-16T01:26:47.176Z,97033.00
2022-12-16T01:29:34.801Z,97028.00
2022-12-16T01:32:22.780Z,97046.00
2022-12-16T01:35:29.461Z,97033.00
2022-12-16T01:38:17.935Z,97027.00
2022-12-16T01:41:06.511Z,97008.00
2022-12-16T01:44:14.187Z,97016.00
2022-12-16T01:47:06.053Z,97015.00
2022-12-16T01:50:15.216Z,97003.00
2022-12-16T01:53:06.583Z,96996.00
2022-12-16T01:55:57.027Z,96990.00
2022-12-16T01:58:45.982Z,96978.00
2022-12-16T02:01:33.556Z,96988.00
2022-12-16T02:04:21.536Z,96986.00
2022-12-16T02:07:09.016Z,96992.00
2022-12-16T02:09:57.631Z,96987.00
2022-12-16T02:13:19.237Z,96996.00
2022-12-16T02:16:36.913Z,97008.00
2022-12-16T02:19:33.218Z,97011.00
2022-12-16T02:22:51.163Z,97000.00
2022-12-16T02:26:19.317Z,96991.00
2022-12-16T02:29:53.241Z,96990.00
2022-12-16T02:33:22.449Z,97002.00
2022-12-16T02:36:52.966Z,96997.00
2022-12-16T02:39:52.696Z,96987.00
2022-12-16T02:43:19.917Z,96996.00
2022-12-16T02:46:10.111Z,97007.00
2022-12-16T02:48:57.876Z,97029.00
2022-12-16T02:51:45.812Z,97026.00
2022-12-16T02:54:33.437Z,97037.00
2022-12-16T02:58:07.778Z,97022.00
2022-12-16T03:01:34.030Z,97023.00
2022-12-16T03:05:21.849Z,97030.00
2022-12-16T03:08:38.122Z,97041.00
2022-12-16T03:11:30.754Z,97049.00
2022-12-16T03:14:23.241Z,97059.00
2022-12-16T03:17:14.097Z,97071.00
2022-12-16T03:20:19.799Z,97068.00
2022-12-16T03:23:16.416Z,97074.00
2022-12-16T03:26:12.753Z,97062.00
2022-12-16T03:29:22.002Z,97073.00
2022-12-16T03:32:24.716Z,97080.00
2022-12-16T03:35:29.004Z,97071.00
2022-12-16T03:38:19.401Z,97078.00
2022-12-16T03:41:08.191Z,97072.00
2022-12-16T03:43:56.372Z,97066.00
2022-12-16T03:46:44.039Z,97067.00
2022-12-16T03:49:31.702Z,97067.00
2022-12-16T03:52:19.197Z,97065.00
2022-12-16T03:55:06.975Z,97063.00
2022-12-16T03:57:55.721Z,97075.00
2022-12-16T04:00:43.301Z,97072.00
2022-12-16T04:03:31.286Z,97082.00
2022-12-16T04:06:19.044Z,97082.00
2022-12-16T04:09:06.616Z,97090.00
2022-12-16T04:12:12.962Z,97093.00
2022-12-16T04:15:19.171Z,97083.00
2022-12-16T04:18:35.484Z,97097.00
2022-12-16T04:21:41.925Z,97089.00
2022-12-16T04:24:31.079Z,97090.00
2022-12-16T04:27:27.987Z,97108.00
2022-12-16T04:30:19.119Z,97102.00
2022-12-16T04:33:31.286Z,97111.00
2022-12-16T04:36:38.357Z,97118.00
2022-12-16T04:39:44.621Z,97123.00
2022-12-16T04:42:51.492Z,97137.00
2022-12-16T04:45:58.426Z,97149.00
2022-12-16T04:49:04.911Z,97154.00
2022-12-16T04:52:11.391Z,97162.00
2022-12-16T04:55:17.797Z,97170.00
2022-12-16T04:58:24.222Z,97172.00
2022-12-16T05:01:30.482Z,97178.00
2022-12-16T05:04:36.931Z,97182.00
2022-12-16T05:07:42.822Z,97183.00
2022-12-16T05:10:49.070Z,97186.00
2022-12-16T05:13:55.295Z,97185.00
2022-12-16T05:17:01.546Z,97200.00
2022-12-16T05:20:07.912Z,97204.00
2022-12-16T05:23:17.275Z,97212.00
2022-12-16T05:26:23.521Z,97214.00
2022-12-16T05:29:29.836Z,97213.00
2022-12-16T05:32:36.422Z,97204.00
2022-12-16T05:35:42.896Z,97196.00
2022-12-16T05:38:49.227Z,97190.00
2022-12-16T05:41:55.497Z,97192.00
2022-12-16T05:45:02.055Z,97182.00
2022-12-16T05:48:08.428Z,97188.00
2022-12-16T05:51:14.600Z,97196.00
2022-12-16T05:54:20.560Z,97201.00
2022-12-16T05:57:26.477Z,97211.00
2022-12-16T06:00:44.000Z,97222.00
2022-12-16T06:03:49.986Z,97228.00
2022-12-16T06:06:57.115Z,97234.00
2022-12-16T06:10:03.436Z,97233.00
2022-12-16T06:13:09.490Z,97238.00
2022-12-16T06:16:15.597Z,97240.00
2022-12-16T06:19:21.882Z,97257.00
2022-12-16T06:22:28.162Z,97268.00
2022-12-16T06:25:34.264Z,97267.00
2022-12-16T06:28:45.706Z,97260.00
2022-12-16T06:31:52.257Z,97280.00
2022-12-16T06:34:58.561Z,97285.00
2022-12-16T06:38:07.746Z,97291.00
2022-12-16T06:41:13.992Z,97305.00
2022-12-16T06:44:20.280Z,97300.00
2022-12-16T06:47:26.191Z,97311.00
2022-12-16T06:50:32.552Z,97320.00
2022-12-16T06:53:38.795Z,97329.00
2022-12-16T06:56:45.092Z,97335.00
2022-12-16T06:59:51.020Z,97337.00
2022-12-16T07:02:57.417Z,97349.00
2022-12-16T07:06:03.896Z,97361.00
2022-12-16T07:09:10.161Z,97369.00
2022-12-16T07:12:16.476Z,97361.00
2022-12-16T07:15:23.306Z,97377.00
2022-12-16T07:18:29.506Z,97379.00
2022-12-16T07:21:35.291Z,97382.00
2022-12-16T07:24:52.180Z,97386.00
2022-12-16T07:27:58.342Z,97396.00
2022-12-16T07:31:04.681Z,97404.00
2022-12-16T07:34:11.006Z,97415.00
2022-12-16T07:37:17.371Z,97406.00
2022-12-16T07:40:24.211Z,97425.00
2022-12-16T07:43:30.319Z,97427.00
2022-12-16T07:46:36.350Z,97425.00
2022-12-16T07:49:42.927Z,97429.00
2022-12-16T07:52:49.150Z,97437.00
2022-12-16T07:55:55.340Z,97459.00
2022-12-16T07:59:01.517Z,97460.00
2022-12-16T08:02:07.997Z,97463.00
2022-12-16T08:05:14.889Z,97464.00
2022-12-16T08:08:21.216Z,97482.00
2022-12-16T08:11:27.684Z,97479.00
2022-12-16T08:14:33.814Z,97471.00
2022-12-16T08:17:40.145Z,97468.00
2022-12-16T08:20:46.267Z,97474.00
2022-12-16T08:23:52.621Z,97466.00
2022-12-16T08:26:59.913Z,97481.00
2022-12-16T08:30:06.117Z,97489.00
2022-12-16T08:33:18.888Z,97491.00
2022-12-16T08:36:26.232Z,97503.00
2022-12-16T08:39:32.232Z,97511.00
2022-12-16T08:42:38.607Z,97526.00
2022-12-16T08:45:45.111Z,97528.00
2022-12-16T08:48:51.352Z,97527.00
2022-12-16T08:51:57.451Z,97528.00
2022-12-16T08:55:03.472Z,97531.00
2022-12-16T08:58:15.788Z,97536.00
2022-12-16T09:01:23.748Z,97544.00
2022-12-16T09:04:30.132Z,97552.00
2022-12-16T09:07:36.823Z,97554.00
2022-12-16T09:10:43.001Z,97556.00
2022-12-16T09:13:49.375Z,97559.00
2022-12-16T09:16:57.253Z,97570.00
2022-12-16T09:20:03.125Z,97572.00
2022-12-16T09:23:09.291Z,97578.00
2022-12-16T09:26:18.536Z,97575.00
2022-12-16T09:29:24.689Z,97576.00
2022-12-16T09:32:30.828Z,97585.00
2022-12-16T09:35:36.817Z,97581.00
2022-12-16T09:38:43.192Z,97596.00
2022-12-16T09:42:03.713Z,97594.00
2022-12-16T09:45:50.744Z,97601.00
2022-12-16T09:49:24.531Z,97598.00
2022-12-16T09:52:42.503Z,97593.00
2022-12-16T09:56:15.667Z,97604.00
2022-12-16T09:59:31.353Z,97598.00
2022-12-16T10:02:39.859Z,97600.00
2022-12-16T10:06:26.889Z,97602.00
2022-12-16T10:10:06.682Z,97611.00
2022-12-16T10:13:36.911Z,97611.00
2022-12-16T10:17:15.406Z,97616.00
2022-12-16T10:20:58.767Z,97611.00
2022-12-16T10:24:29.681Z,97621.00
2022-12-16T10:27:45.948Z,97631.00
2022-12-16T10:30:56.789Z,97625.00
2022-12-16T10:34:08.204Z,97633.00
2022-12-16T10:37:20.702Z,97636.00
2022-12-16T10:40:38.396Z,97643.00
2022-12-16T10:43:56.412Z,97638.00
2022-12-16T10:47:02.631Z,97644.00
2022-12-16T10:50:17.307Z,97642.00
2022-12-16T10:53:35.058Z,97645.00
2022-12-16T10:57:14.001Z,97634.00
2022-12-16T11:00:35.745Z,97644.00
2022-12-16T11:03:46.503Z,97643.00
2022-12-16T11:07:00.374Z,97640.00
2022-12-16T11:10:06.627Z,97636.00
2022-12-16T11:13:12.982Z,97642.00
2022-12-16T11:16:48.275Z,97634.00
2022-12-16T11:19:54.348Z,97631.00
2022-12-16T11:23:00.822Z,97625.00
2022-12-16T11:26:24.346Z,97626.00
2022-12-16T11:29:40.615Z,97619.00
2022-12-16T11:32:47.361Z,97626.00
2022-12-16T11:36:00.951Z,97625.00
2022-12-16T11:39:10.758Z,97632.00
2022-12-16T11:42:39.267Z,97624.00
2022-12-16T11:45:45.531Z,97617.00
2022-12-16T11:49:13.553Z,97632.00
2022-12-16T11:52:39.446Z,97635.00
2022-12-16T11:56:06.864Z,97641.00
2022-12-16T11:59:21.961Z,97646.00
2022-12-16T12:02:47.461Z,97655.00
2022-12-16T12:06:24.331Z,97660.00
2022-12-16T12:09:39.326Z,97665.00
2022-12-16T12:13:17.569Z,97666.00
2022-12-16T12:17:09.025Z,97674.00
2022-12-16T12:20:29.274Z,97669.00
2022-12-16T12:24:01.874Z,97669.00
2022-12-16T12:27:29.561Z,97665.00
2022-12-16T12:30:40.592Z,97669.00
2022-12-16T12:34:26.611Z,97667.00
2022-12-16T12:37:58.281Z,97669.00
2022-12-16T12:41:33.808Z,97680.00
2022-12-16T12:44:57.338Z,97683.00
2022-12-16T12:48:27.731Z,97692.00
2022-12-16T12:52:07.452Z,97687.00
2022-12-16T12:55:31.636Z,97700.00
2022-12-16T12:58:38.871Z,97710.00
2022-12-16T13:01:53.122Z,97714.00
2022-12-16T13:05:01.626Z,97722.00
2022-12-16T13:08:07.928Z,97727.00
2022-12-16T13:11:35.105Z,97723.00
2022-12-16T13:14:51.536Z,97731.00
2022-12-16T13:18:43.297Z,97731.00
2022-12-16T13:22:07.700Z,97728.00
2022-12-16T13:25:13.916Z,97743.00
2022-12-16T13:28:20.012Z,97750.00
2022-12-16T13:31:28.813Z,97744.00
2022-12-16T13:34:35.291Z,97754.00
2022-12-16T13:37:46.450Z,97752.00
2022-12-16T13:41:08.586Z,97754.00
2022-12-16T13:44:19.626Z,97768.00
2022-12-16T13:48:00.681Z,97766.00
2022-12-16T13:51:18.613Z,97769.00
2022-12-16T13:54:27.131Z,97773.00
2022-12-16T13:57:43.023Z,97779.00
2022-12-16T14:00:57.957Z,97776.00
2022-12-16T14:04:11.180Z,97781.00
2022-12-16T14:07:24.607Z,97782.00
2022-12-16T14:10:51.837Z,97791.00
2022-12-16T14:14:26.876Z,97798.00
2022-12-16T14:18:04.465Z,97801.00
2022-12-16T14:21:19.946Z,97807.00
2022-12-16T14:24:44.976Z,97810.00
2022-12-16T14:27:54.097Z,97818.00
2022-12-16T14:31:01.026Z,97830.00
2022-12-16T14:34:12.912Z,97835.00
2022-12-16T14:37:23.877Z,97832.00
2022-12-16T14:40:49.371Z,97837.00
2022-12-16T14:43:55.472Z,97837.00
2022-12-16T14:47:08.896Z,97839.00
2022-12-16T14:50:14.761Z,97839.00
2022-12-16T14:53:41.721Z,97847.00
2022-12-16T14:56:49.721Z,97857.00
2022-12-16T14:59:56.196Z,97868.00
2022-12-16T15:03:07.881Z,97862.00
2022-12-16T15:06:16.156Z,97859.00
2022-12-16T15:09:25.117Z,97870.00
2022-12-16T15:12:34.406Z,97883.00
2022-12-16T15:15:55.908Z,97875.00
2022-12-16T15:19:17.310Z,97878.00
2022-12-16T15:22:23.830Z,97886.00
2022-12-16T15:25:45.497Z,97886.00
2022-12-16T15:28:54.638Z,97899.00
2022-12-16T15:32:03.572Z,97899.00
2022-12-16T15:35:10.241Z,97901.00
2022-12-16T15:38:16.726Z,97901.00
2022-12-16T15:41:25.136Z,97911.00
2022-12-16T15:44:49.866Z,97915.00
2022-12-16T15:47:57.641Z,97915.00
2022-12-16T15:51:12.219Z,97924.00
2022-12-16T15:54:22.777Z,97931.00
2022-12-16T15:57:49.013Z,97940.00
2022-12-16T16:00:55.834Z,97938.00
2022-12-16T16:04:10.309Z,97934.00
2022-12-16T16:07:16.782Z,97940.00
2022-12-16T16:10:41.830Z,97941.00
2022-12-16T16:13:48.636Z,97951.00
2022-12-16T16:16:55.031Z,97959.00
2022-12-16T16:20:03.773Z,97963.00
2022-12-16T16:23:09.957Z,97961.00
2022-12-16T16:26:16.782Z,97968.00
2022-12-16T16:29:23.911Z,97970.00
2022-12-16T16:32:30.459Z,97973.00
2022-12-16T16:35:36.541Z,97976.00
2022-12-16T16:38:42.716Z,97982.00
2022-12-16T16:41:49.187Z,97988.00
2022-12-16T16:44:55.141Z,97984.00
2022-12-16T16:48:01.427Z,97986.00
2022-12-16T16:51:07.441Z,97992.00
2022-12-16T16:54:16.842Z,98003.00
2022-12-16T16:57:22.800Z,98003.00
2022-12-16T17:00:30.134Z,98004.00
2022-12-16T17:03:37.486Z,98027.00
2022-12-16T17:06:44.280Z,98024.00
2022-12-16T17:09:50.185Z,98022.00
2022-12-16T17:12:59.918Z,98022.00
2022-12-16T17:16:10.449Z,98022.00
2022-12-16T17:19:18.038Z,98033.00
2022-12-16T17:22:24.124Z,98042.00
2022-12-16T17:25:31.808Z,98032.00
2022-12-16T17:28:38.315Z,98048.00
2022-12-16T17:31:44.702Z,98048.00
2022-12-16T17:34:51.066Z,98050.00
2022-12-16T17:37:58.943Z,98046.00
2022-12-16T17:41:11.635Z,98059.00
2022-12-16T17:44:17.892Z,98072.00
2022-12-16T17:47:24.253Z,98071.00
2022-12-16T17:50:30.232Z,98073.00
2022-12-16T17:53:37.018Z,98080.00
2022-12-16T17:56:43.591Z,98079.00
2022-12-16T17:59:54.506Z,98077.00
2022-12-16T18:03:01.350Z,98082.00
2022-12-16T18:06:07.791Z,98088.00
2022-12-16T18:09:14.183Z,98086.00
2022-12-16T18:12:20.140Z,98091.00
2022-12-16T18:15:27.843Z,98097.00
2022-12-16T18:18:33.926Z,98099.00
2022-12-16T18:21:40.051Z,98109.00
2022-12-16T18:24:48.570Z,98110.00
2022-12-16T18:27:55.660Z,98114.00
2022-12-16T18:31:01.717Z,98119.00
2022-12-16T18:34:07.918Z,98122.00
2022-12-16T18:37:14.326Z,98138.00
2022-12-16T18:40:20.671Z,98134.00
2022-12-16T18:43:29.477Z,98147.00
2022-12-16T18:46:35.812Z,98139.00
2022-12-16T18:49:42.113Z,98152.00
2022-12-16T18:52:48.980Z,98149.00
2022-12-16T18:55:55.346Z,98153.00
2022-12-16T18:59:01.884Z,98162.00
2022-12-16T19:02:08.157Z,98168.00
2022-12-16T19:05:14.472Z,98171.00
2022-12-16T19:08:20.591Z,98174.00
2022-12-16T19:11:26.781Z,98170.00
2022-12-16T19:14:32.848Z,98171.00
2022-12-16T19:17:39.141Z,98179.00
2022-12-16T19:20:45.130Z,98186.00
2022-12-16T19:23:51.411Z,98190.00
2022-12-16T19:26:58.307Z,98203.00
2022-12-16T19:30:04.351Z,98192.00
2022-12-16T19:33:10.685Z,98212.00
2022-12-16T19:36:16.848Z,98210.00
2022-12-16T19:39:23.204Z,98217.00
2022-12-16T19:42:29.537Z,98225.00
2022-12-16T19:45:35.789Z,98223.00
2022-12-16T19:48:41.947Z,98224.00
2022-12-16T19:51:47.880Z,98236.00
2022-12-16T19:54:56.145Z,98244.00
2022-12-16T19:58:02.486Z,98245.00
2022-12-16T20:01:08.706Z,98245.00
2022-12-16T20:04:15.956Z,98255.00
2022-12-16T20:10:47.886Z,98254.00
2022-12-16T20:17:20.061Z,98270.00
2022-12-16T20:20:26.422Z,98271.00
2022-12-16T20:23:32.651Z,98279.00
2022-12-16T20:26:38.970Z,98282.00
2022-12-16T20:29:45.216Z,98282.00
2022-12-16T20:32:51.542Z,98294.00
2022-12-16T20:35:58.100Z,98299.00
2022-12-16T20:39:05.267Z,98294.00
2022-12-16T20:42:11.709Z,98305.00
2022-12-16T20:45:18.141Z,98308.00
2022-12-16T20:48:24.644Z,98316.00
2022-12-16T20:51:30.747Z,98313.00
2022-12-16T20:54:36.970Z,98315.00
2022-12-16T20:57:43.237Z,98322.00
2022-12-16T21:00:49.250Z,98323.00
2022-12-16T21:03:55.277Z,98331.00
2022-12-16T21:07:02.715Z,98334.00
2022-12-16T21:10:08.942Z,98335.00
2022-12-16T21:13:15.652Z,98344.00
2022-12-16T21:16:25.757Z,98358.00
2022-12-16T21:19:36.211Z,98351.00
2022-12-16T21:22:42.135Z,98367.00
2022-12-16T21:25:48.062Z,98361.00
2022-12-16T21:28:56.250Z,98363.00
2022-12-16T21:32:02.292Z,98360.00
2022-12-16T21:35:08.191Z,98366.00
2022-12-16T21:38:17.059Z,98381.00
2022-12-16T21:41:23.352Z,98394.00
2022-12-16T21:44:29.711Z,98401.00
2022-12-16T21:47:35.657Z,98405.00
2022-12-16T21:50:45.105Z,98408.00
2022-12-16T21:53:53.503Z,98387.00
2022-12-16T21:56:59.716Z,98407.00
2022-12-16T22:00:06.151Z,98402.00
2022-12-16T22:03:14.455Z,98404.00
2022-12-16T22:06:20.480Z,98425.00
2022-12-16T22:09:26.683Z,98419.00
2022-12-16T22:12:33.544Z,98426.00
2022-12-16T22:15:40.276Z,98423.00
2022-12-16T22:18:46.695Z,98422.00
2022-12-16T22:21:52.855Z,98427.00
2022-12-16T22:24:59.781Z,98426.00
2022-12-16T22:28:06.127Z,98426.00
2022-12-16T22:31:16.082Z,98444.00
2022-12-16T22:34:22.741Z,98448.00
2022-12-16T22:37:29.022Z,98449.00
2022-12-16T22:40:35.416Z,98438.00
2022-12-16T22:43:49.527Z,98441.00
2022-12-16T22:46:56.217Z,98440.00
2022-12-16T22:50:02.303Z,98452.00
2022-12-16T22:53:09.604Z,98463.00
2022-12-16T22:56:15.940Z,98447.00
2022-12-16T22:59:22.322Z,98458.00
2022-12-16T23:02:28.793Z,98457.00
2022-12-16T23:05:35.951Z,98462.00
2022-12-16T23:08:42.133Z,98471.00
2022-12-16T23:11:56.853Z,98469.00
2022-12-16T23:15:02.869Z,98475.00
2022-12-16T23:18:09.195Z,98480.00
2022-12-16T23:21:16.100Z,98478.00
2022-12-16T23:24:23.243Z,98475.00
2022-12-16T23:27:29.563Z,98478.00
2022-12-16T23:30:35.776Z,98486.00
2022-12-16T23:33:41.996Z,98488.00
2022-12-16T23:36:47.963Z,98489.00
2022-12-16T23:39:54.106Z,98491.00
2022-12-16T23:43:02.623Z,98487.00
2022-12-16T23:46:08.854Z,98502.00
2022-12-16T23:49:16.151Z,98491.00
2022-12-16T23:52:22.211Z,98496.00
2022-12-16T23:55:28.966Z,98500.00
2022-12-16T23:58:34.967Z,98503.00
